createdAt,value
2023-04-15T00:00:58.495Z,3.67
2023-04-15T00:03:27.138Z,3.60
2023-04-15T00:05:56.354Z,3.95
2023-04-15T00:08:24.877Z,3.30
2023-04-15T00:10:54.774Z,3.30
2023-04-15T00:13:23.714Z,3.60
2023-04-15T00:15:53.738Z,3.03
2023-04-15T00:18:23.691Z,3.53
2023-04-15T00:20:52.575Z,3.42
2023-04-15T00:23:21.026Z,4.45
2023-04-15T00:25:49.785Z,3.88
2023-04-15T00:28:19.580Z,3.70
2023-04-15T00:30:48.369Z,3.60
2023-04-15T00:33:17.776Z,4.28
2023-04-15T00:35:46.295Z,4.22
2023-04-15T00:38:14.775Z,4.82
2023-04-15T00:40:43.637Z,4.28
2023-04-15T00:43:12.017Z,3.63
2023-04-15T00:45:41.905Z,4.10
2023-04-15T00:48:10.655Z,4.53
2023-04-15T00:50:39.048Z,4.20
2023-04-15T00:53:07.434Z,4.03
2023-04-15T00:55:36.260Z,3.45
2023-04-15T00:58:04.938Z,3.67
2023-04-15T01:00:33.411Z,4.47
2023-04-15T01:03:03.335Z,4.30
2023-04-15T01:05:32.357Z,3.90
2023-04-15T01:08:00.770Z,3.85
2023-04-15T01:10:29.161Z,3.90
2023-04-15T01:12:58.028Z,4.30
2023-04-15T01:15:27.538Z,4.35
2023-04-15T01:17:56.146Z,4.18
2023-04-15T01:20:26.016Z,4.15
2023-04-15T01:22:54.396Z,4.22
2023-04-15T01:25:29.721Z,4.03
2023-04-15T01:27:58.219Z,4.80
2023-04-15T01:30:27.007Z,4.05
2023-04-15T01:32:56.117Z,3.75
2023-04-15T01:35:24.724Z,4.05
2023-04-15T01:37:54.395Z,3.53
2023-04-15T01:40:22.953Z,3.65
2023-04-15T01:42:52.712Z,3.53
2023-04-15T01:45:21.232Z,4.20
2023-04-15T01:47:50.512Z,4.47
2023-04-15T01:50:19.003Z,3.80
2023-04-15T01:52:47.678Z,3.67
2023-04-15T01:55:16.181Z,4.60
2023-04-15T01:57:44.568Z,3.60
2023-04-15T02:00:14.822Z,3.95
2023-04-15T02:02:43.700Z,4.13
2023-04-15T02:05:12.237Z,4.63
2023-04-15T02:07:40.621Z,5.15
2023-04-15T02:10:09.498Z,4.50
2023-04-15T02:12:37.980Z,4.30
2023-04-15T02:15:07.163Z,4.43
2023-04-15T02:17:37.678Z,4.85
2023-04-15T02:20:06.871Z,4.00
2023-04-15T02:22:35.292Z,4.38
2023-04-15T02:25:03.698Z,4.38
2023-04-15T02:27:32.868Z,4.50
2023-04-15T02:30:01.287Z,5.00
2023-04-15T02:32:29.773Z,4.30
2023-04-15T02:35:03.945Z,4.03
2023-04-15T02:37:32.607Z,4.22
2023-04-15T02:40:01.407Z,4.03
2023-04-15T02:42:30.462Z,4.93
2023-04-15T02:44:59.443Z,4.20
2023-04-15T02:47:27.879Z,4.72
2023-04-15T02:49:56.376Z,5.43
2023-04-15T02:52:26.179Z,4.70
2023-04-15T02:54:57.780Z,3.90
2023-04-15T02:57:26.240Z,4.57
2023-04-15T02:59:54.687Z,4.30
2023-04-15T03:02:23.501Z,4.43
2023-04-15T03:04:51.998Z,5.20
2023-04-15T03:07:20.639Z,3.83
2023-04-15T03:09:50.623Z,4.00
2023-04-15T03:12:19.054Z,4.45
2023-04-15T03:14:47.461Z,4.40
2023-04-15T03:17:15.866Z,5.00
2023-04-15T03:19:44.282Z,5.15
2023-04-15T03:22:12.691Z,5.45
2023-04-15T03:24:41.080Z,4.07
2023-04-15T03:27:10.890Z,4.47
2023-04-15T03:29:39.303Z,4.80
2023-04-15T03:32:07.692Z,4.25
2023-04-15T03:34:36.146Z,3.88
2023-04-15T03:37:04.745Z,3.97
2023-04-15T03:39:33.164Z,4.35
2023-04-15T03:42:01.933Z,3.72
2023-04-15T03:44:32.928Z,4.90
2023-04-15T03:47:01.485Z,4.10
2023-04-15T03:49:29.869Z,4.60
2023-04-15T03:51:58.437Z,3.80
2023-04-15T03:54:26.840Z,3.95
2023-04-15T03:56:55.237Z,4.45
2023-04-15T03:59:23.693Z,3.88
2023-04-15T04:01:53.564Z,3.85
2023-04-15T04:04:22.539Z,4.00
2023-04-15T04:06:51.080Z,3.75
2023-04-15T04:09:19.503Z,3.50
2023-04-15T04:11:47.885Z,3.88
2023-04-15T04:14:16.420Z,4.00
2023-04-15T04:16:44.876Z,4.15
2023-04-15T04:19:15.032Z,4.00
2023-04-15T04:21:43.451Z,3.88
2023-04-15T04:24:11.888Z,5.00
2023-04-15T04:26:40.315Z,4.05
2023-04-15T04:29:08.750Z,3.20
2023-04-15T04:31:37.183Z,4.15
2023-04-15T04:34:05.714Z,3.60
2023-04-15T04:36:35.483Z,3.55
2023-04-15T04:39:04.132Z,3.78
2023-04-15T04:41:32.525Z,4.55
2023-04-15T04:44:00.962Z,4.53
2023-04-15T04:46:29.390Z,4.13
2023-04-15T04:48:57.846Z,4.03
2023-04-15T04:51:26.359Z,4.93
2023-04-15T04:53:57.306Z,3.75
2023-04-15T04:56:25.809Z,4.65
2023-04-15T04:58:54.224Z,5.03
2023-04-15T05:01:22.639Z,4.18
2023-04-15T05:03:51.274Z,5.22
2023-04-15T05:06:19.812Z,4.00
2023-04-15T05:08:48.260Z,4.18
2023-04-15T05:11:18.208Z,4.53
2023-04-15T05:13:46.651Z,3.60
2023-04-15T05:16:15.177Z,5.22
2023-04-15T05:18:43.573Z,4.90
2023-04-15T05:21:11.999Z,4.63
2023-04-15T05:23:40.417Z,5.07
2023-04-15T05:26:09.082Z,5.15
2023-04-15T05:28:38.799Z,5.07
2023-04-15T05:31:07.502Z,4.38
2023-04-15T05:33:36.159Z,5.38
2023-04-15T05:36:04.596Z,3.40
2023-04-15T05:38:33.036Z,4.05
2023-04-15T05:41:01.443Z,3.78
2023-04-15T05:43:30.820Z,4.25
2023-04-15T05:46:00.658Z,5.35
2023-04-15T05:48:28.934Z,5.65
2023-04-15T05:50:57.193Z,4.90
2023-04-15T05:53:25.380Z,4.97
2023-04-15T05:55:53.615Z,5.47
2023-04-15T05:58:21.990Z,5.35
2023-04-15T06:00:50.214Z,5.80
2023-04-15T06:03:19.892Z,4.65
2023-04-15T06:05:48.331Z,4.82
2023-04-15T06:08:16.455Z,4.68
2023-04-15T06:10:44.739Z,5.32
2023-04-15T06:13:13.001Z,4.20
2023-04-15T06:15:41.285Z,5.53
2023-04-15T06:18:09.439Z,7.47
2023-04-15T06:20:39.412Z,5.63
2023-04-15T06:23:07.597Z,4.43
2023-04-15T06:25:35.819Z,7.40
2023-04-15T06:28:03.988Z,6.72
2023-04-15T06:30:32.168Z,7.00
2023-04-15T06:33:00.393Z,5.38
2023-04-15T06:35:28.660Z,6.60
2023-04-15T06:37:58.212Z,6.20
2023-04-15T06:40:26.814Z,6.43
2023-04-15T06:42:55.395Z,8.82
2023-04-15T06:45:23.921Z,7.22
2023-04-15T06:47:52.729Z,7.30
2023-04-15T06:50:21.190Z,7.18
2023-04-15T06:52:49.716Z,6.50
2023-04-15T06:55:19.522Z,7.07
2023-04-15T06:57:50.901Z,8.43
2023-04-15T07:00:20.436Z,7.75
2023-04-15T07:02:49.003Z,8.55
2023-04-15T07:05:19.127Z,8.50
2023-04-15T07:07:47.778Z,10.57
2023-04-15T07:10:16.276Z,10.15
2023-04-15T07:12:46.249Z,10.45
2023-04-15T07:15:14.664Z,6.03
2023-04-15T07:17:43.843Z,4.32
2023-04-15T07:20:12.811Z,11.27
2023-04-15T07:22:41.745Z,7.18
2023-04-15T07:25:10.662Z,10.23
2023-04-15T07:27:39.162Z,8.38
2023-04-15T07:30:10.710Z,8.55
2023-04-15T07:32:39.179Z,9.80
2023-04-15T07:35:07.915Z,9.02
2023-04-15T07:37:36.294Z,9.55
2023-04-15T07:40:07.225Z,8.30
2023-04-15T07:42:36.636Z,8.57
2023-04-15T07:45:05.388Z,9.05
2023-04-15T07:47:35.240Z,7.72
2023-04-15T07:50:03.722Z,8.55
2023-04-15T07:52:32.476Z,8.35
2023-04-15T07:55:00.886Z,7.55
2023-04-15T07:57:29.318Z,5.30
2023-04-15T07:59:57.713Z,7.57
2023-04-15T08:02:25.999Z,7.68
2023-04-15T08:04:55.670Z,7.93
2023-04-15T08:07:23.908Z,5.70
2023-04-15T08:09:52.356Z,7.13
2023-04-15T08:12:20.623Z,6.65
2023-04-15T08:14:48.836Z,7.78
2023-04-15T08:17:16.999Z,6.88
2023-04-15T08:19:45.164Z,8.88
2023-04-15T08:22:16.077Z,5.93
2023-04-15T08:24:46.720Z,4.35
2023-04-15T08:27:14.860Z,7.20
2023-04-15T08:29:43.376Z,6.95
2023-04-15T08:32:11.776Z,4.90
2023-04-15T08:34:40.197Z,7.47
2023-04-15T08:37:09.613Z,6.82
2023-04-15T08:39:40.221Z,7.28
2023-04-15T08:42:13.486Z,6.50
2023-04-15T08:44:41.906Z,7.32
2023-04-15T08:47:10.960Z,7.93
2023-04-15T08:49:41.828Z,7.75
2023-04-15T08:52:10.508Z,8.57
2023-04-15T08:54:40.257Z,5.20
2023-04-15T08:57:08.911Z,6.57
2023-04-15T08:59:37.313Z,3.00
2023-04-15T09:02:07.079Z,4.70
2023-04-15T09:04:35.614Z,5.60
2023-04-15T09:07:04.936Z,5.78
2023-04-15T09:09:33.843Z,6.30
2023-04-15T09:12:04.754Z,5.97
2023-04-15T09:14:34.085Z,6.30
2023-04-15T09:17:04.410Z,6.93
2023-04-15T09:19:34.612Z,5.93
2023-04-15T09:22:04.255Z,4.35
2023-04-15T09:24:43.361Z,7.18
2023-04-15T09:27:12.986Z,4.90
2023-04-15T09:29:42.888Z,3.13
2023-04-15T09:32:12.459Z,4.20
2023-04-15T09:34:40.698Z,4.35
2023-04-15T09:37:10.990Z,4.18
2023-04-15T09:39:50.657Z,4.78
2023-04-15T09:42:24.504Z,5.30
2023-04-15T09:44:53.221Z,3.60
2023-04-15T09:47:39.193Z,3.72
2023-04-15T09:50:08.491Z,2.95
2023-04-15T09:52:43.988Z,3.15
2023-04-15T09:55:13.495Z,2.25
2023-04-15T09:57:44.383Z,4.20
2023-04-15T10:00:13.115Z,3.47
2023-04-15T10:02:44.936Z,3.53
2023-04-15T10:05:16.364Z,3.35
2023-04-15T10:07:45.854Z,3.28
2023-04-15T10:10:14.778Z,3.05
2023-04-15T10:12:45.536Z,3.45
2023-04-15T10:15:16.999Z,2.60
2023-04-15T10:17:46.407Z,3.33
2023-04-15T10:20:16.135Z,3.30
2023-04-15T10:22:46.477Z,3.40
2023-04-15T10:25:16.499Z,1.95
2023-04-15T10:27:48.577Z,3.42
2023-04-15T10:30:17.561Z,4.18
2023-04-15T10:32:46.736Z,4.20
2023-04-15T10:35:15.660Z,2.28
2023-04-15T10:37:43.821Z,3.13
2023-04-15T10:40:33.218Z,2.78
2023-04-15T10:43:03.619Z,2.45
2023-04-15T10:45:34.792Z,1.75
2023-04-15T10:48:04.612Z,2.40
2023-04-15T10:50:33.286Z,3.40
2023-04-15T10:53:04.115Z,4.03
2023-04-15T10:55:34.273Z,3.75
2023-04-15T10:58:04.248Z,3.08
2023-04-15T11:00:35.351Z,3.88
2023-04-15T11:03:08.466Z,3.10
2023-04-15T11:05:53.211Z,1.88
2023-04-15T11:08:23.745Z,3.50
2023-04-15T11:10:56.580Z,3.38
2023-04-15T11:13:31.804Z,4.00
2023-04-15T11:16:03.976Z,4.28
2023-04-15T11:18:33.844Z,3.03
2023-04-15T11:21:07.071Z,3.00
2023-04-15T11:23:41.255Z,1.88
2023-04-15T11:26:12.361Z,1.50
2023-04-15T11:28:43.385Z,1.50
2023-04-15T11:31:13.655Z,1.50
2023-04-15T11:33:56.545Z,2.42
2023-04-15T11:36:28.361Z,2.38
2023-04-15T11:38:57.158Z,2.28
2023-04-15T11:41:25.576Z,2.30
2023-04-15T11:43:55.157Z,2.20
2023-04-15T11:46:30.019Z,2.40
2023-04-15T11:48:58.373Z,2.40
2023-04-15T11:51:26.540Z,2.13
2023-04-15T11:53:55.982Z,2.03
2023-04-15T11:56:25.590Z,2.17
2023-04-15T11:58:57.315Z,1.60
2023-04-15T12:01:33.212Z,0.63
2023-04-15T12:04:02.498Z,1.60
2023-04-15T12:06:35.093Z,1.60
2023-04-15T12:09:09.351Z,1.30
2023-04-15T12:11:40.322Z,1.30
2023-04-15T12:14:12.736Z,1.10
2023-04-15T12:16:48.488Z,1.05
2023-04-15T12:19:24.532Z,1.70
2023-04-15T12:22:00.230Z,1.10
2023-04-15T12:24:29.491Z,1.42
2023-04-15T12:26:59.252Z,1.30
2023-04-15T12:29:30.196Z,0.95
2023-04-15T12:31:59.993Z,0.93
2023-04-15T12:34:30.643Z,1.50
2023-04-15T12:37:00.699Z,1.65
2023-04-15T12:39:30.795Z,1.80
2023-04-15T12:42:00.460Z,1.55
2023-04-15T12:44:30.617Z,1.27
2023-04-15T12:46:59.893Z,1.80
2023-04-15T12:49:28.935Z,1.08
2023-04-15T12:51:59.587Z,1.77
2023-04-15T12:54:28.238Z,0.90
2023-04-15T12:56:56.790Z,1.45
2023-04-15T12:59:25.307Z,1.25
2023-04-15T13:01:55.140Z,1.20
2023-04-15T13:04:24.097Z,1.05
2023-04-15T13:06:52.362Z,1.10
2023-04-15T13:09:20.655Z,1.30
2023-04-15T13:11:48.792Z,1.20
2023-04-15T13:14:17.023Z,1.58
2023-04-15T13:16:45.692Z,1.10
2023-04-15T13:19:15.472Z,1.00
2023-04-15T13:21:43.665Z,0.43
2023-04-15T13:24:11.870Z,1.42
2023-04-15T13:26:40.372Z,1.30
2023-04-15T13:29:08.544Z,1.40
2023-04-15T13:31:36.751Z,1.45
2023-04-15T13:34:05.477Z,2.15
2023-04-15T13:36:35.458Z,1.70
2023-04-15T13:39:05.628Z,2.00
2023-04-15T13:41:33.796Z,1.65
2023-04-15T13:44:02.071Z,1.40
2023-04-15T13:46:30.350Z,1.50
2023-04-15T13:48:58.533Z,1.63
2023-04-15T13:51:27.098Z,1.15
2023-04-15T13:53:58.175Z,0.98
2023-04-15T13:56:26.692Z,1.00
2023-04-15T13:58:58.914Z,1.70
2023-04-15T14:01:27.452Z,1.40
2023-04-15T14:03:55.792Z,1.55
2023-04-15T14:06:24.051Z,1.05
2023-04-15T14:08:53.080Z,1.48
2023-04-15T14:11:22.662Z,1.13
2023-04-15T14:13:50.851Z,1.52
2023-04-15T14:16:19.095Z,1.10
2023-04-15T14:18:47.531Z,0.70
2023-04-15T14:21:16.088Z,1.40
2023-04-15T14:23:44.662Z,1.50
2023-04-15T14:26:13.761Z,1.30
2023-04-15T14:28:45.101Z,1.10
2023-04-15T14:31:14.321Z,1.20
2023-04-15T14:33:42.672Z,1.40
2023-04-15T14:36:11.610Z,1.05
2023-04-15T14:38:40.251Z,1.00
2023-04-15T14:41:09.117Z,1.40
2023-04-15T14:43:37.803Z,1.60
2023-04-15T14:46:08.631Z,1.25
2023-04-15T14:48:37.044Z,1.20
2023-04-15T14:51:05.722Z,1.23
2023-04-15T14:53:33.994Z,1.02
2023-04-15T14:56:02.175Z,1.40
2023-04-15T14:58:30.381Z,1.60
2023-04-15T15:00:58.593Z,1.25
2023-04-15T15:03:28.260Z,0.70
2023-04-15T15:05:57.736Z,0.90
2023-04-15T15:08:26.115Z,1.15
2023-04-15T15:11:00.301Z,1.27
2023-04-15T15:13:28.530Z,1.35
2023-04-15T15:15:56.733Z,1.25
2023-04-15T15:18:25.652Z,1.58
2023-04-15T15:20:55.274Z,2.63
2023-04-15T15:23:23.425Z,2.13
2023-04-15T15:25:51.658Z,1.88
2023-04-15T15:28:21.794Z,1.50
2023-04-15T15:30:50.122Z,1.73
2023-04-15T15:33:18.566Z,1.73
2023-04-15T15:35:47.021Z,1.58
2023-04-15T15:38:16.672Z,1.52
2023-04-15T15:40:44.848Z,0.80
2023-04-15T15:43:13.250Z,1.02
2023-04-15T15:45:41.915Z,1.23
2023-04-15T15:48:10.210Z,1.10
2023-04-15T15:50:38.460Z,1.35
2023-04-15T15:53:06.699Z,1.63
2023-04-15T15:55:36.269Z,1.35
2023-04-15T15:58:04.674Z,1.27
2023-04-15T16:00:33.043Z,1.40
2023-04-15T16:03:07.427Z,1.58
2023-04-15T16:05:39.902Z,1.25
2023-04-15T16:08:08.150Z,1.40
2023-04-15T16:10:38.805Z,1.10
2023-04-15T16:13:07.009Z,1.00
2023-04-15T16:15:39.810Z,1.20
2023-04-15T16:18:08.196Z,1.10
2023-04-15T16:20:36.630Z,0.73
2023-04-15T16:23:09.574Z,0.90
2023-04-15T16:25:39.462Z,1.10
2023-04-15T16:28:18.592Z,1.08
2023-04-15T16:30:51.497Z,0.90
2023-04-15T16:33:19.941Z,1.67
2023-04-15T16:35:48.368Z,1.08
2023-04-15T16:38:16.775Z,1.20
2023-04-15T16:40:46.589Z,0.60
2023-04-15T16:43:15.089Z,0.85
2023-04-15T16:45:44.541Z,1.25
2023-04-15T16:48:12.684Z,1.10
2023-04-15T16:50:40.869Z,1.13
2023-04-15T16:53:09.503Z,1.45
2023-04-15T16:55:37.637Z,1.00
2023-04-15T16:58:08.448Z,0.80
2023-04-15T17:00:37.262Z,1.25
2023-04-15T17:03:06.959Z,1.55
2023-04-15T17:05:35.463Z,1.02
2023-04-15T17:08:05.908Z,1.52
2023-04-15T17:10:34.329Z,1.10
2023-04-15T17:13:02.501Z,1.05
2023-04-15T17:15:32.408Z,0.95
2023-04-15T17:18:00.932Z,1.00
2023-04-15T17:20:29.282Z,0.88
2023-04-15T17:22:57.736Z,0.90
2023-04-15T17:25:25.909Z,1.00
2023-04-15T17:27:54.068Z,1.00
2023-04-15T17:30:22.530Z,0.80
2023-04-15T17:32:53.009Z,1.00
2023-04-15T17:35:23.073Z,1.00
2023-04-15T17:37:51.237Z,1.10
2023-04-15T17:40:19.509Z,0.95
2023-04-15T17:42:47.675Z,1.15
2023-04-15T17:45:16.129Z,0.80
2023-04-15T17:47:44.425Z,1.00
2023-04-15T17:50:14.045Z,0.90
2023-04-15T17:52:42.475Z,0.80
2023-04-15T17:55:11.099Z,1.25
2023-04-15T17:57:39.545Z,1.77
2023-04-15T18:00:08.863Z,1.98
2023-04-15T18:02:37.722Z,3.83
2023-04-15T18:05:06.738Z,1.15
2023-04-15T18:07:36.574Z,1.10
2023-04-15T18:10:05.262Z,2.05
2023-04-15T18:12:33.424Z,2.17
2023-04-15T18:15:01.788Z,1.80
2023-04-15T18:17:30.168Z,1.00
2023-04-15T18:20:02.789Z,1.55
2023-04-15T18:22:31.204Z,1.52
2023-04-15T18:25:04.244Z,1.73
2023-04-15T18:27:33.194Z,1.67
2023-04-15T18:30:01.618Z,1.40
2023-04-15T18:32:32.687Z,1.40
2023-04-15T18:35:01.075Z,1.20
2023-04-15T18:37:30.003Z,1.52
2023-04-15T18:39:58.514Z,1.88
2023-04-15T18:42:28.277Z,2.08
2023-04-15T18:44:56.582Z,1.92
2023-04-15T18:47:26.906Z,1.73
2023-04-15T18:49:55.615Z,1.90
2023-04-15T18:52:23.856Z,1.63
2023-04-15T18:54:52.085Z,2.05
2023-04-15T18:57:25.858Z,2.35
2023-04-15T19:00:02.136Z,3.10
2023-04-15T19:02:30.713Z,3.05
2023-04-15T19:04:59.192Z,3.92
2023-04-15T19:07:27.654Z,2.05
2023-04-15T19:09:56.110Z,2.25
2023-04-15T19:12:26.917Z,1.95
2023-04-15T19:14:55.567Z,2.13
2023-04-15T19:17:25.574Z,2.22
2023-04-15T19:19:54.033Z,2.00
2023-04-15T19:22:22.548Z,2.22
2023-04-15T19:24:51.011Z,4.50
2023-04-15T19:27:19.540Z,3.30
2023-04-15T19:29:48.020Z,3.22
2023-04-15T19:32:16.431Z,5.78
2023-04-15T19:34:46.513Z,7.18
2023-04-15T19:37:15.015Z,5.28
2023-04-15T19:39:43.424Z,4.03
2023-04-15T19:42:11.949Z,2.42
2023-04-15T19:44:42.970Z,2.75
2023-04-15T19:47:11.469Z,2.50
2023-04-15T19:49:40.092Z,1.88
2023-04-15T19:52:09.950Z,2.47
2023-04-15T19:54:38.445Z,2.58
2023-04-15T19:57:06.880Z,2.75
2023-04-15T19:59:35.354Z,3.03
2023-04-15T20:02:04.102Z,2.83
2023-04-15T20:04:32.856Z,3.40
2023-04-15T20:07:01.376Z,3.40
2023-04-15T20:09:31.222Z,2.90
2023-04-15T20:12:44.960Z,2.55
2023-04-15T20:14:48.665Z,2.10
2023-04-15T20:17:17.180Z,2.72
2023-04-15T20:19:45.701Z,2.22
2023-04-15T20:22:14.090Z,2.55
2023-04-15T20:24:43.848Z,2.22
2023-04-15T20:27:12.225Z,2.40
2023-04-15T20:29:40.658Z,2.63
2023-04-15T20:32:11.445Z,2.40
2023-04-15T20:34:41.267Z,2.30
2023-04-15T20:37:09.650Z,2.25
2023-04-15T20:39:38.068Z,3.20
2023-04-15T20:42:10.161Z,2.90
2023-04-15T20:44:39.468Z,2.38
2023-04-15T20:47:08.047Z,2.40
2023-04-15T20:49:36.688Z,2.58
2023-04-15T20:52:05.167Z,2.45
2023-04-15T20:54:33.691Z,2.95
2023-04-15T20:57:02.582Z,2.28
2023-04-15T20:59:32.864Z,2.50
2023-04-15T21:02:01.504Z,2.75
2023-04-15T21:04:30.053Z,2.15
2023-04-15T21:06:58.554Z,2.25
2023-04-15T21:09:27.005Z,2.42
2023-04-15T21:14:27.263Z,2.63
2023-04-15T21:16:58.763Z,2.30
2023-04-15T21:19:27.161Z,2.20
2023-04-15T21:21:55.588Z,2.95
2023-04-15T21:24:24.074Z,2.50
2023-04-15T21:26:52.497Z,1.98
2023-04-15T21:29:20.981Z,2.78
2023-04-15T21:31:49.442Z,2.33
2023-04-15T21:34:19.290Z,1.83
2023-04-15T21:36:47.749Z,1.90
2023-04-15T21:39:17.102Z,1.85
2023-04-15T21:41:45.755Z,2.25
2023-04-15T21:44:15.078Z,1.65
2023-04-15T21:46:45.942Z,2.10
2023-04-15T21:49:14.749Z,1.88
2023-04-15T21:51:45.694Z,2.25
2023-04-15T21:54:14.098Z,1.80
2023-04-15T21:56:43.466Z,1.58
2023-04-15T21:59:11.817Z,2.35
2023-04-15T22:01:40.247Z,1.90
2023-04-15T22:04:09.717Z,1.70
2023-04-15T22:06:38.224Z,1.90
2023-04-15T22:09:07.999Z,2.05
2023-04-15T22:11:36.392Z,2.63
2023-04-15T22:14:05.341Z,2.00
2023-04-15T22:16:33.848Z,1.90
2023-04-15T22:19:02.669Z,1.75
2023-04-15T22:21:31.768Z,2.33
2023-04-15T22:24:38.524Z,2.17
2023-04-15T22:26:50.036Z,2.30
2023-04-15T22:29:18.496Z,1.65
2023-04-15T22:31:46.948Z,1.95
2023-04-15T22:34:20.745Z,1.80
2023-04-15T22:36:49.198Z,1.63
2023-04-15T22:39:17.707Z,2.10
2023-04-15T22:41:46.160Z,1.55
2023-04-15T22:44:15.951Z,1.73
2023-04-15T22:46:44.479Z,1.60
2023-04-15T22:49:12.931Z,1.52
2023-04-15T22:51:41.384Z,1.52
2023-04-15T22:54:09.769Z,1.63
2023-04-15T22:56:38.149Z,1.70
2023-04-15T22:59:06.657Z,2.05
2023-04-15T23:01:38.268Z,1.80
2023-04-15T23:04:09.772Z,1.83
2023-04-15T23:06:52.494Z,2.00
2023-04-15T23:09:21.054Z,1.85
2023-04-15T23:11:49.475Z,2.35
2023-04-15T23:14:17.893Z,1.88
2023-04-15T23:16:47.687Z,1.80
2023-04-15T23:19:16.085Z,1.95
2023-04-15T23:21:44.501Z,1.73
2023-04-15T23:24:13.377Z,1.67
2023-04-15T23:26:41.903Z,2.00
2023-04-15T23:29:10.518Z,2.38
2023-04-15T23:31:39.153Z,1.63
2023-04-15T23:34:08.976Z,1.60
2023-04-15T23:36:37.358Z,1.35
2023-04-15T23:39:05.864Z,2.03
2023-04-15T23:41:34.244Z,1.33
2023-04-15T23:44:02.639Z,1.85
2023-04-15T23:46:31.094Z,1.77
2023-04-15T23:48:59.488Z,1.67
2023-04-15T23:51:29.304Z,1.40
2023-04-15T23:53:57.727Z,1.80
2023-04-15T23:56:26.270Z,1.50
2023-04-15T23:58:54.687Z,1.95
